Time;durP1;ratioP1;P1;durP2;ratioP2;P2;SDS_P1;SDS_P2;PMS_P1;PMS_P2;Temp;Humidity;BMP_temperature;BMP_pressure;BME280_temperature;BME280_humidity;BME280_pressure;Samples;Min_cycle;Max_cycle;Signal;HPM_P1;HPM_P2
2022/11/01 00:02:04;;;;;;;111.00;28.77;;;;;;;;;;5024856;28;20033;-72
2022/11/01 00:04:29;;;;;;;104.97;29.37;;;;;;;;;;5045021;28;20083;-71
2022/11/01 00:06:55;;;;;;;93.13;29.53;;;;;;;;;;5048455;28;20398;-72
2022/11/01 00:09:20;;;;;;;90.83;29.73;;;;;;;;;;5029137;28;20380;-69
2022/11/01 00:11:45;;;;;;;78.87;29.33;;;;;;;;;;5033608;28;20317;-67
2022/11/01 00:14:12;;;;;;;114.00;28.92;;;;;;;;;;5048885;28;20638;-69
2022/11/01 00:16:37;;;;;;;98.18;29.45;;;;;;;;;;5053193;28;20037;-68
2022/11/01 00:19:03;;;;;;;116.72;30.80;;;;;;;;;;5050648;28;20029;-69
2022/11/01 00:21:28;;;;;;;105.70;30.30;;;;;;;;;;5047625;28;20474;-69
2022/11/01 00:23:53;;;;;;;94.30;30.60;;;;;;;;;;5046973;28;20378;-68
2022/11/01 00:26:20;;;;;;;95.63;29.07;;;;;;;;;;5051297;28;20328;-69
2022/11/01 00:28:46;;;;;;;94.22;27.80;;;;;;;;;;5046184;28;21080;-68
2022/11/01 00:31:12;;;;;;;75.68;26.45;;;;;;;;;;5045935;28;20116;-68
2022/11/01 00:33:38;;;;;;;65.80;24.63;;;;;;;;;;5046950;28;20021;-69
2022/11/01 00:36:04;;;;;;;79.80;24.67;;;;;;;;;;5030980;28;20397;-69
2022/11/01 00:38:29;;;;;;;68.78;25.15;;;;;;;;;;5023058;28;20032;-68
2022/11/01 00:40:55;;;;;;;78.20;24.97;;;;;;;;;;5025941;28;20430;-68
2022/11/01 00:43:20;;;;;;;58.03;25.52;;;;;;;;;;5050137;28;20044;-69
2022/11/01 00:45:45;;;;;;;55.37;26.30;;;;;;;;;;5045969;28;20044;-68
2022/11/01 00:48:11;;;;;;;89.47;26.30;;;;;;;;;;5044425;28;20067;-69
2022/11/01 00:50:36;;;;;;;74.72;26.08;;;;;;;;;;5048732;28;20024;-68
2022/11/01 00:53:02;;;;;;;71.72;26.02;;;;;;;;;;5045738;28;20068;-68
2022/11/01 00:55:27;;;;;;;62.35;27.45;;;;;;;;;;5045276;28;20108;-68
2022/11/01 00:57:52;;;;;;;96.78;27.40;;;;;;;;;;5052456;28;20020;-68
2022/11/01 01:00:18;;;;;;;87.50;27.42;;;;;;;;;;5051036;28;20021;-69
2022/11/01 01:02:43;;;;;;;71.95;25.75;;;;;;;;;;5055778;28;20035;-69
2022/11/01 01:05:09;;;;;;;67.80;26.45;;;;;;;;;;5051171;28;20036;-69
2022/11/01 01:07:34;;;;;;;63.22;25.42;;;;;;;;;;5052375;28;20108;-69
2022/11/01 01:09:59;;;;;;;59.93;26.57;;;;;;;;;;5031308;28;20029;-69
2022/11/01 01:12:24;;;;;;;64.00;24.90;;;;;;;;;;5046923;28;20330;-69
2022/11/01 01:14:50;;;;;;;60.33;24.20;;;;;;;;;;5052630;28;20308;-68
2022/11/01 01:17:16;;;;;;;57.50;24.25;;;;;;;;;;5033911;28;20348;-69
2022/11/01 01:19:41;;;;;;;65.72;23.83;;;;;;;;;;5053557;28;20037;-68
2022/11/01 01:22:06;;;;;;;49.87;23.83;;;;;;;;;;5049945;28;20186;-69
2022/11/01 01:24:32;;;;;;;57.45;23.58;;;;;;;;;;5050125;28;20025;-69
2022/11/01 01:26:57;;;;;;;45.55;23.10;;;;;;;;;;5047819;28;20021;-68
2022/11/01 01:29:23;;;;;;;54.60;24.60;;;;;;;;;;5044488;28;20053;-69
2022/11/01 01:31:49;;;;;;;65.80;23.98;;;;;;;;;;5052766;28;20082;-70
2022/11/01 01:34:14;;;;;;;60.50;24.10;;;;;;;;;;5050209;28;20497;-69
2022/11/01 01:36:39;;;;;;;65.47;23.80;;;;;;;;;;5047328;28;20025;-68
2022/11/01 01:39:04;;;;;;;54.00;22.83;;;;;;;;;;5053345;28;20397;-68
2022/11/01 01:44:33;;;;;;;45.28;23.30;;;;;;;;;;5052551;28;20277;-69
2022/11/01 01:46:58;;;;;;;54.58;23.42;;;;;;;;;;5053982;28;20032;-69
2022/11/01 01:49:23;;;;;;;68.97;24.63;;;;;;;;;;5050138;28;20367;-69
2022/11/01 01:51:48;;;;;;;82.50;23.40;;;;;;;;;;5039282;28;20482;-68
2022/11/01 01:54:14;;;;;;;46.05;22.63;;;;;;;;;;5049995;28;20095;-67
2022/11/01 01:56:39;;;;;;;67.57;22.08;;;;;;;;;;5050875;28;20037;-68
2022/11/01 01:59:06;;;;;;;83.28;23.02;;;;;;;;;;5057932;28;20032;-68
2022/11/01 02:01:33;;;;;;;75.90;22.90;;;;;;;;;;5043884;28;20405;-67
2022/11/01 02:03:59;;;;;;;69.40;21.48;;;;;;;;;;5056273;28;20056;-68
2022/11/01 02:06:25;;;;;;;105.03;22.52;;;;;;;;;;5055930;28;20055;-69
2022/11/01 02:08:52;;;;;;;58.90;21.08;;;;;;;;;;5056350;28;20021;-69
2022/11/01 02:11:18;;;;;;;42.20;20.38;;;;;;;;;;5037207;28;20025;-69
2022/11/01 02:13:43;;;;;;;64.40;21.13;;;;;;;;;;5056206;28;20038;-69
2022/11/01 02:16:27;;;;;;;59.03;20.27;;;;;;;;;;5053475;28;20063;-69
2022/11/01 02:19:07;;;;;;;79.00;21.58;;;;;;;;;;5047922;28;20071;-69
2022/11/01 02:21:44;;;;;;;68.35;19.58;;;;;;;;;;5050222;28;20025;-68
2022/11/01 02:24:31;;;;;;;45.50;18.92;;;;;;;;;;5027571;28;20025;-68
2022/11/01 02:27:00;;;;;;;53.00;19.33;;;;;;;;;;5026156;28;20020;-67
2022/11/01 02:29:25;;;;;;;41.90;18.65;;;;;;;;;;5050786;28;20056;-67
2022/11/01 02:32:00;;;;;;;42.53;20.33;;;;;;;;;;5034894;28;20028;-67
2022/11/01 02:34:28;;;;;;;44.40;19.63;;;;;;;;;;5028871;28;20041;-70
2022/11/01 02:37:16;;;;;;;35.08;18.63;;;;;;;;;;5027949;28;20069;-68
2022/11/01 02:39:46;;;;;;;49.88;20.02;;;;;;;;;;5022241;28;20067;-68
2022/11/01 02:42:13;;;;;;;69.43;19.20;;;;;;;;;;5053414;28;20028;-68
2022/11/01 02:44:40;;;;;;;48.13;18.02;;;;;;;;;;5034275;28;20383;-67
2022/11/01 02:47:06;;;;;;;53.45;17.55;;;;;;;;;;5031359;28;20029;-68
2022/11/01 02:49:33;;;;;;;30.60;17.75;;;;;;;;;;5023727;28;20032;-68
2022/11/01 02:51:59;;;;;;;31.08;18.10;;;;;;;;;;5032812;28;20056;-68
2022/11/01 02:54:31;;;;;;;36.78;19.05;;;;;;;;;;5052608;28;20033;-67
2022/11/01 02:56:58;;;;;;;51.35;19.48;;;;;;;;;;5034995;28;20378;-70
2022/11/01 02:59:25;;;;;;;44.80;18.27;;;;;;;;;;5053804;28;20032;-68
2022/11/01 03:01:54;;;;;;;45.55;18.42;;;;;;;;;;5053910;28;20387;-69
2022/11/01 03:04:19;;;;;;;46.22;19.90;;;;;;;;;;5053866;28;20028;-68
2022/11/01 03:06:47;;;;;;;39.50;19.75;;;;;;;;;;5026203;28;20178;-68
2022/11/01 03:09:13;;;;;;;40.25;19.73;;;;;;;;;;5049768;28;20033;-68
2022/11/01 03:11:52;;;;;;;44.22;21.25;;;;;;;;;;5048974;28;20105;-68
2022/11/01 03:14:17;;;;;;;54.95;20.60;;;;;;;;;;5048371;28;20037;-69
2022/11/01 03:16:50;;;;;;;53.55;20.25;;;;;;;;;;5032572;28;20106;-68
2022/11/01 03:19:33;;;;;;;56.38;19.02;;;;;;;;;;5051428;28;20017;-68
2022/11/01 03:21:59;;;;;;;72.45;18.70;;;;;;;;;;5042900;28;20037;-68
2022/11/01 03:24:29;;;;;;;54.70;17.47;;;;;;;;;;5030567;28;20021;-69
2022/11/01 03:27:00;;;;;;;63.40;18.38;;;;;;;;;;5040515;28;20033;-68
2022/11/01 03:29:27;;;;;;;63.70;17.38;;;;;;;;;;5048800;28;20048;-68
2022/11/01 03:31:53;;;;;;;55.85;18.90;;;;;;;;;;5044698;28;20056;-68
2022/11/01 03:34:19;;;;;;;37.53;19.33;;;;;;;;;;5048023;28;20409;-68
2022/11/01 03:36:51;;;;;;;50.30;19.48;;;;;;;;;;5048041;28;20104;-68
2022/11/01 03:39:19;;;;;;;61.78;20.17;;;;;;;;;;5054188;28;20078;-68
2022/11/01 03:41:47;;;;;;;42.55;21.45;;;;;;;;;;5057354;28;20052;-70
2022/11/01 03:44:13;;;;;;;45.45;19.85;;;;;;;;;;5044804;28;20040;-68
2022/11/01 03:46:39;;;;;;;45.83;19.35;;;;;;;;;;5048606;28;20425;-68
2022/11/01 03:49:04;;;;;;;72.15;20.33;;;;;;;;;;5050766;28;20407;-68
2022/11/01 03:51:29;;;;;;;37.40;17.93;;;;;;;;;;5049426;28;20020;-68
2022/11/01 03:53:55;;;;;;;34.60;19.08;;;;;;;;;;5051326;28;20399;-68
2022/11/01 03:56:20;;;;;;;33.78;19.27;;;;;;;;;;5053831;28;20076;-68
2022/11/01 03:58:45;;;;;;;50.60;19.17;;;;;;;;;;5050551;28;20039;-67
2022/11/01 04:01:13;;;;;;;45.80;18.53;;;;;;;;;;5047335;28;20085;-68
2022/11/01 04:03:38;;;;;;;30.35;17.52;;;;;;;;;;5053383;28;20715;-68
2022/11/01 04:06:04;;;;;;;54.05;17.67;;;;;;;;;;5035829;28;20103;-69
2022/11/01 04:08:29;;;;;;;92.35;19.55;;;;;;;;;;5030524;28;20394;-67
2022/11/01 04:10:55;;;;;;;34.03;17.70;;;;;;;;;;5052669;28;20677;-67
2022/11/01 04:13:20;;;;;;;49.58;16.77;;;;;;;;;;5038465;28;20582;-69
2022/11/01 04:21:15;;;;;;;36.58;16.08;;;;;;;;;;5046491;28;20120;-68
2022/11/01 04:23:40;;;;;;;54.22;16.38;;;;;;;;;;5045655;28;20028;-68
2022/11/01 04:26:06;;;;;;;68.43;15.60;;;;;;;;;;5045293;28;20032;-68
2022/11/01 04:28:31;;;;;;;42.28;15.05;;;;;;;;;;5029850;28;20048;-68
2022/11/01 04:30:57;;;;;;;46.22;14.68;;;;;;;;;;5047754;28;20041;-68
2022/11/01 04:33:22;;;;;;;35.77;13.43;;;;;;;;;;5049972;28;20043;-68
2022/11/01 04:35:48;;;;;;;42.20;15.00;;;;;;;;;;5042049;28;20368;-69
2022/11/01 04:38:13;;;;;;;44.95;13.73;;;;;;;;;;5031576;28;20778;-67
2022/11/01 04:40:40;;;;;;;29.70;13.43;;;;;;;;;;5052064;28;20024;-68
2022/11/01 04:43:05;;;;;;;24.15;13.70;;;;;;;;;;5026664;28;20056;-69
2022/11/01 04:45:30;;;;;;;56.27;14.40;;;;;;;;;;5039686;28;20074;-69
2022/11/01 04:48:06;;;;;;;25.83;15.03;;;;;;;;;;5038947;28;20115;-68
2022/11/01 04:50:32;;;;;;;79.70;16.38;;;;;;;;;;5049460;28;20033;-67
2022/11/01 04:52:58;;;;;;;29.48;16.15;;;;;;;;;;5048541;28;20104;-68
2022/11/01 04:55:24;;;;;;;54.95;17.60;;;;;;;;;;5053662;28;20120;-67
2022/11/01 04:57:49;;;;;;;42.20;16.13;;;;;;;;;;5048884;28;20047;-67
2022/11/01 05:00:14;;;;;;;95.00;17.33;;;;;;;;;;5046304;28;20028;-68
2022/11/01 05:02:40;;;;;;;50.20;15.10;;;;;;;;;;5026878;28;20063;-67
2022/11/01 05:05:06;;;;;;;28.60;15.60;;;;;;;;;;5049888;28;20545;-72
2022/11/01 05:07:32;;;;;;;58.83;15.98;;;;;;;;;;5043353;28;20029;-70
2022/11/01 05:09:57;;;;;;;33.83;15.40;;;;;;;;;;5044524;28;20475;-68
2022/11/01 05:12:22;;;;;;;37.05;16.15;;;;;;;;;;5054374;28;20147;-68
2022/11/01 05:14:47;;;;;;;33.40;14.32;;;;;;;;;;5055574;28;20033;-68
2022/11/01 05:17:13;;;;;;;49.20;14.43;;;;;;;;;;5052287;28;20039;-68
2022/11/01 05:19:38;;;;;;;49.07;15.07;;;;;;;;;;5059438;28;20108;-68
2022/11/01 05:22:03;;;;;;;26.80;15.20;;;;;;;;;;5051920;28;20497;-68
2022/11/01 05:24:28;;;;;;;40.43;15.83;;;;;;;;;;5038260;28;20273;-68
2022/11/01 05:26:54;;;;;;;40.97;16.37;;;;;;;;;;5051589;28;20031;-71
2022/11/01 05:29:19;;;;;;;33.23;14.53;;;;;;;;;;5045678;28;20048;-67
2022/11/01 05:31:44;;;;;;;26.45;14.75;;;;;;;;;;5054195;28;20813;-71
2022/11/01 05:34:10;;;;;;;27.90;14.13;;;;;;;;;;5038378;28;20024;-71
2022/11/01 05:36:35;;;;;;;37.57;13.97;;;;;;;;;;5059129;28;20037;-71
2022/11/01 05:39:00;;;;;;;34.10;14.83;;;;;;;;;;5058754;28;20036;-67
2022/11/01 05:41:25;;;;;;;48.07;14.33;;;;;;;;;;5052454;28;20577;-63
2022/11/01 05:43:50;;;;;;;33.60;14.50;;;;;;;;;;5061025;28;20040;-66
2022/11/01 05:46:16;;;;;;;57.90;14.00;;;;;;;;;;5054628;28;20024;-67
2022/11/01 05:48:41;;;;;;;53.58;14.13;;;;;;;;;;5047100;28;20286;-66
2022/11/01 05:51:07;;;;;;;57.30;14.07;;;;;;;;;;5036725;28;20032;-72
2022/11/01 05:53:32;;;;;;;49.50;13.32;;;;;;;;;;5051721;28;20021;-72
2022/11/01 05:55:58;;;;;;;60.60;12.07;;;;;;;;;;5027036;28;20036;-72
2022/11/01 05:58:24;;;;;;;96.47;12.98;;;;;;;7.93;nan;101263.91;5052245;28;20027;-72
2022/11/01 06:00:51;;;;;;;90.25;13.88;;;;;;;;;;5054692;28;20033;-73
2022/11/01 06:03:18;;;;;;;71.43;13.07;;;;;;;;;;5052354;28;20053;-72
2022/11/01 06:05:43;;;;;;;49.22;12.88;;;;;;;;;;5028888;28;20824;-72
2022/11/01 06:08:08;;;;;;;49.53;13.07;;;;;;;;;;5047865;28;20029;-72
2022/11/01 06:10:33;;;;;;;38.97;15.10;;;;;;;;;;5049716;28;20707;-73
2022/11/01 06:12:59;;;;;;;37.35;13.00;;;;;;;;;;5051699;28;20512;-72
2022/11/01 06:15:24;;;;;;;52.57;13.80;;;;;;;;;;5057111;28;20443;-73
2022/11/01 06:17:57;;;;;;;46.23;12.57;;;;;;;;;;5051740;28;20095;-73
2022/11/01 06:20:22;;;;;;;70.95;13.93;;;;;;;;;;5051320;28;20025;-72
2022/11/01 06:22:47;;;;;;;58.70;14.40;;;;;;;;;;5045439;28;20041;-72
2022/11/01 06:25:12;;;;;;;68.03;13.77;;;;;;;;;;5055718;28;20025;-67
2022/11/01 06:27:38;;;;;;;58.27;14.37;;;;;;;;;;5033650;28;20101;-67
2022/11/01 06:30:04;;;;;;;39.27;14.13;;;;;;;;;;5053163;28;20049;-67
2022/11/01 06:32:29;;;;;;;26.00;14.10;;;;;;;;;;5034492;28;20415;-71
2022/11/01 06:34:54;;;;;;;53.37;14.17;;;;;;;;;;5060340;28;20036;-71
2022/11/01 06:37:19;;;;;;;58.17;16.03;;;;;;;;;;5042941;28;20492;-70
2022/11/01 06:39:45;;;;;;;42.47;16.17;;;;;;;;;;5054668;28;20055;-71
2022/11/01 06:42:10;;;;;;;31.40;14.87;;;;;;;;;;5063954;28;20029;-71
2022/11/01 06:44:35;;;;;;;38.37;16.90;;;;;;;;;;5060654;28;20017;-70
2022/11/01 06:47:00;;;;;;;56.27;18.77;;;;;;;;;;5058929;28;20270;-72
2022/11/01 06:49:26;;;;;;;46.47;18.77;;;;;;;;;;5048109;28;20104;-72
2022/11/01 06:51:51;;;;;;;64.05;20.38;;;;;;;;;;5049909;28;20052;-71
2022/11/01 06:54:16;;;;;;;46.00;19.87;;;;;;;;;;5029075;28;20025;-72
2022/11/01 06:56:41;;;;;;;49.95;22.33;;;;;;;;;;5051711;28;20021;-72
2022/11/01 06:59:07;;;;;;;68.82;21.27;;;;;;;;;;5042346;28;20398;-72
2022/11/01 07:01:32;;;;;;;68.10;21.52;;;;;;;;;;5059329;28;20024;-73
2022/11/01 07:03:58;;;;;;;54.63;21.17;;;;;;;;;;5034302;28;20085;-73
2022/11/01 07:06:27;;;;;;;55.77;22.27;;;;;;;;;;5052269;28;20280;-71
2022/11/01 07:08:52;;;;;;;;;;;;;;;;;;5031512;28;20278;-72
2022/11/01 07:11:17;;;;;;;52.70;23.77;;;;;;;;;;5051189;28;19920;-72
2022/11/01 07:13:43;;;;;;;55.80;24.67;;;;;;;;;;5052427;28;20100;-73
2022/11/01 07:16:08;;;;;;;75.97;24.07;;;;;;;;;;5033887;28;20129;-72
2022/11/01 07:18:33;;;;;;;75.07;22.37;;;;;;;;;;5034617;28;20098;-71
2022/11/01 07:21:02;;;;;;;60.97;23.70;;;;;;;;;;5050446;28;20032;-70
2022/11/01 07:23:28;;;;;;;83.28;23.73;;;;;;;;;;5048681;28;20368;-69
2022/11/01 07:25:53;;;;;;;94.10;25.35;;;;;;;;;;5051274;28;20020;-70
2022/11/01 07:28:19;;;;;;;62.83;23.52;;;;;;;7.99;nan;101278.91;5052971;28;20032;-69
2022/11/01 07:30:52;;;;;;;50.38;24.73;;;;;;;;;;5035524;28;20132;-69
2022/11/01 07:33:17;;;;;;;52.00;25.88;;;;;;;;;;5031741;28;20112;-70
2022/11/01 07:35:43;;;;;;;48.55;25.70;;;;;;;;;;5036319;28;20041;-70
2022/11/01 07:38:09;;;;;;;54.85;26.90;;;;;;;;;;5033746;28;20113;-72
2022/11/01 07:40:35;;;;;;;54.45;27.95;;;;;;;;;;5032574;28;20032;-72
2022/11/01 07:43:00;;;;;;;52.97;29.67;;;;;;;;;;5053866;28;20075;-71
2022/11/01 07:45:27;;;;;;;53.03;28.65;;;;;;;;;;5046557;28;20036;-72
2022/11/01 07:47:52;;;;;;;52.28;29.10;;;;;;;;;;5051810;28;20443;-71
2022/11/01 07:50:18;;;;;;;57.95;28.80;;;;;;;;;;5054391;28;20024;-71
2022/11/01 07:52:44;;;;;;;59.67;30.38;;;;;;;;;;5030964;28;20025;-71
2022/11/01 07:55:09;;;;;;;54.17;29.63;;;;;;;;;;5034931;28;20033;-72
2022/11/01 07:57:38;;;;;;;61.77;29.73;;;;;;;;;;5056293;28;20055;-71
2022/11/01 08:00:03;;;;;;;53.27;28.37;;;;;;;;;;5051710;28;20384;-72
2022/11/01 08:02:28;;;;;;;55.72;30.02;;;;;;;;;;5051371;28;20823;-72
2022/11/01 08:04:54;;;;;;;51.47;28.00;;;;;;;;;;5052570;28;20028;-72
2022/11/01 08:07:19;;;;;;;49.30;26.93;;;;;;;;;;5052577;28;20028;-72
2022/11/01 08:09:44;;;;;;;46.80;28.07;;;;;;;;;;5038117;28;20640;-72
2022/11/01 08:12:09;;;;;;;47.07;26.53;;;;;;;;;;5051990;28;20315;-72
2022/11/01 08:14:35;;;;;;;46.90;26.35;;;;;;;;;;5049933;28;20033;-72
2022/11/01 08:17:00;;;;;;;43.53;24.77;;;;;;;;;;5053824;28;20040;-72
2022/11/01 08:19:25;;;;;;;40.05;23.70;;;;;;;;;;5052395;28;20037;-72
2022/11/01 08:21:51;;;;;;;40.67;23.38;;;;;;;;;;5052652;28;20028;-76
2022/11/01 08:24:16;;;;;;;40.53;24.33;;;;;;;;;;5045111;28;20048;-71
2022/11/01 08:26:42;;;;;;;39.95;23.38;;;;;;;10.16;nan;101234.88;5046290;28;20058;-72
2022/11/01 08:29:08;;;;;;;35.50;21.55;;;;;;;10.27;nan;101243.19;5049773;28;20025;-72
2022/11/01 08:31:33;;;;;;;38.25;21.23;;;;;;;;;;5047929;28;20111;-70
2022/11/01 08:33:59;;;;;;;38.55;22.30;;;;;;;;;;5045801;28;20051;-69
2022/11/01 08:36:24;;;;;;;38.67;20.80;;;;;;;;;;5046967;28;20051;-70
2022/11/01 08:38:49;;;;;;;36.03;20.33;;;;;;;10.62;nan;101228.81;5047479;28;20028;-71
2022/11/01 08:41:15;;;;;;;30.92;19.48;;;;;;;10.72;nan;101230.22;5031672;28;20592;-72
2022/11/01 08:43:40;;;;;;;31.73;19.20;;;;;;;10.80;nan;101238.75;5028267;28;20028;-71
2022/11/01 08:46:05;;;;;;;33.25;20.23;;;;;;;10.91;nan;101237.28;5049349;28;20056;-76
2022/11/01 08:48:31;;;;;;;32.42;19.10;;;;;;;;;;5049518;28;20025;-71
2022/11/01 08:50:56;;;;;;;32.83;19.38;;;;;;;;;;5043450;28;20490;-71
2022/11/01 08:53:23;;;;;;;36.53;19.57;;;;;;;;;;5030687;28;20029;-72
2022/11/01 08:55:53;;;;;;;34.88;20.45;;;;;;;;;;5047739;28;20029;-71
2022/11/01 08:58:18;;;;;;;34.33;20.20;;;;;;;;;;5021448;28;20032;-72
2022/11/01 09:00:43;;;;;;;32.73;18.63;;;;;;;;;;5045626;28;20403;-72
2022/11/01 09:03:08;;;;;;;31.27;19.33;;;;;;;;;;5050636;28;20387;-72
2022/11/01 09:05:34;;;;;;;33.47;19.83;;;;;;;;;;5027077;28;20029;-71
2022/11/01 09:07:59;;;;;;;36.65;18.77;;;;;;;;;;5051814;28;20158;-69
2022/11/01 09:10:24;;;;;;;38.55;19.00;;;;;;;;;;5026509;28;20390;-70
2022/11/01 09:12:50;;;;;;;32.90;18.73;;;;;;;;;;5031461;28;20535;-70
2022/11/01 09:15:15;;;;;;;36.97;19.90;;;;;;;;;;5041692;28;20037;-70
2022/11/01 09:17:40;;;;;;;34.13;19.05;;;;;;;;;;5024227;28;20155;-70
2022/11/01 09:20:08;;;;;;;32.15;17.73;;;;;;;;;;5028059;28;20090;-70
2022/11/01 09:22:36;;;;;;;30.67;19.23;;;;;;;;;;5045183;28;20098;-70
2022/11/01 09:25:01;;;;;;;32.55;18.92;;;;;;;;;;5047179;28;20439;-72
2022/11/01 09:27:26;;;;;;;32.67;19.43;;;;;;;;;;5034070;28;20040;-72
2022/11/01 09:29:51;;;;;;;29.83;18.23;;;;;;;;;;5046578;28;20503;-72
2022/11/01 09:32:17;;;;;;;33.78;19.25;;;;;;;;;;5047777;28;20179;-72
2022/11/01 09:34:42;;;;;;;34.13;18.27;;;;;;;;;;5046451;28;20025;-71
2022/11/01 09:37:08;;;;;;;31.75;18.80;;;;;;;;;;5046755;28;20040;-72
2022/11/01 09:39:33;;;;;;;34.85;18.02;;;;;;;;;;5048236;28;20475;-72
2022/11/01 09:42:03;;;;;;;29.07;17.00;;;;;;;;;;5048503;28;20379;-73
2022/11/01 09:44:33;;;;;;;30.55;17.45;;;;;;;13.73;nan;101223.28;5032078;28;20036;-72
2022/11/01 09:47:02;;;;;;;28.42;16.98;;;;;;;;;;5048133;28;20521;-71
2022/11/01 09:49:30;;;;;;;24.77;16.90;;;;;;;;;;5049362;28;20045;-73
2022/11/01 09:51:55;;;;;;;31.23;17.88;;;;;;;;;;5027542;28;20037;-71
2022/11/01 09:54:22;;;;;;;26.60;17.23;;;;;;;;;;5051174;28;20382;-70
2022/11/01 09:56:53;;;;;;;28.85;15.90;;;;;;;;;;5034743;28;20149;-69
2022/11/01 09:59:21;;;;;;;24.98;15.38;;;;;;;;;;5055371;28;20021;-69
2022/11/01 10:01:55;;;;;;;28.58;16.33;;;;;;;;;;5050645;28;20021;-70
2022/11/01 10:04:23;;;;;;;25.20;15.82;;;;;;;;;;5035996;28;20025;-70
2022/11/01 10:06:53;;;;;;;35.42;16.02;;;;;;;;;;5049704;28;20021;-70
2022/11/01 10:09:18;;;;;;;29.85;15.30;;;;;;;;;;5028647;28;20024;-70
2022/11/01 10:12:08;;;;;;;26.40;15.57;;;;;;;;;;5054291;28;20024;-70
2022/11/01 10:14:48;;;;;;;23.13;15.18;;;;;;;;;;5053195;28;20294;-70
2022/11/01 10:17:15;;;;;;;24.52;14.05;;;;;;;;;;5064879;28;20028;-71
2022/11/01 10:19:46;;;;;;;22.13;13.73;;;;;;;15.70;nan;101191.75;5052279;28;20021;-72
2022/11/01 10:22:32;;;;;;;20.65;14.20;;;;;;;;;;5053277;28;20079;-72
2022/11/01 10:24:59;;;;;;;28.98;13.60;;;;;;;;;;5048177;28;20556;-71
2022/11/01 10:27:28;;;;;;;23.55;14.00;;;;;;;;;;5050191;28;20029;-72
2022/11/01 10:29:59;;;;;;;23.13;14.73;;;;;;;;;;5031875;28;20394;-70
2022/11/01 10:32:27;;;;;;;22.38;13.93;;;;;;;;;;5051242;28;20028;-72
2022/11/01 10:34:56;;;;;;;28.48;13.20;;;;;;;;;;5049697;28;20032;-73
2022/11/01 10:37:27;;;;;;;26.40;13.65;;;;;;;;;;5050207;28;20029;-72
2022/11/01 10:40:00;;;;;;;25.77;13.25;;;;;;;;;;5047295;28;20025;-72
2022/11/01 10:42:28;;;;;;;26.67;14.27;;;;;;;;;;5049776;28;20032;-74
2022/11/01 10:44:56;;;;;;;25.40;13.73;;;;;;;;;;5038595;28;20074;-72
2022/11/01 10:47:23;;;;;;;27.67;13.25;;;;;;;;;;5065419;28;20033;-75
2022/11/01 10:49:50;;;;;;;21.48;13.05;;;;;;;;;;5056397;28;20132;-72
2022/11/01 10:52:18;;;;;;;22.95;13.65;;;;;;;;;;5036619;28;20036;-71
2022/11/01 10:54:45;;;;;;;24.40;13.95;;;;;;;;;;5051037;28;20491;-72
2022/11/01 10:57:28;;;;;;;21.27;13.60;;;;;;;17.18;nan;101144.38;5051527;28;20053;-73
2022/11/01 10:59:55;;;;;;;27.05;14.63;;;;;;;;;;5053847;28;20032;-73
2022/11/01 11:02:25;;;;;;;23.77;13.70;;;;;;;;;;5051686;28;20033;-72
2022/11/01 11:04:51;;;;;;;22.67;13.85;;;;;;;;;;5037531;28;20104;-72
2022/11/01 11:07:17;;;;;;;23.95;13.68;;;;;;;;;;5048887;28;20100;-72
2022/11/01 11:09:43;;;;;;;26.42;14.23;;;;;;;17.72;nan;101132.88;5054214;28;20097;-72
2022/11/01 11:12:14;;;;;;;25.70;13.95;;;;;;;;;;5046141;28;20024;-73
2022/11/01 11:14:42;;;;;;;19.00;12.27;;;;;;;17.88;nan;101121.28;5051240;28;20035;-73
2022/11/01 11:17:28;;;;;;;26.48;12.95;;;;;;;;;;5051628;28;20489;-72
2022/11/01 11:19:54;;;;;;;20.83;12.75;;;;;;;;;;5048655;28;20024;-71
2022/11/01 11:22:22;;;;;;;17.40;12.25;;;;;;;;;;5049291;28;20028;-71
2022/11/01 11:24:48;;;;;;;18.88;11.48;;;;;;;;;;5032069;28;20525;-71
2022/11/01 11:27:26;;;;;;;21.77;12.52;;;;;;;;;;5036529;28;20132;-72
2022/11/01 11:29:51;;;;;;;18.35;11.63;;;;;;;;;;5041706;28;20046;-72
2022/11/01 11:32:18;;;;;;;20.83;11.83;;;;;;;;;;5045840;28;20384;-72
2022/11/01 11:34:50;;;;;;;19.88;11.85;;;;;;;;;;5032098;28;20052;-72
2022/11/01 11:37:22;;;;;;;16.42;10.35;;;;;;;18.99;nan;101054.63;5026339;28;20395;-70
2022/11/01 11:40:09;;;;;;;17.80;10.70;;;;;;;19.10;nan;101046.31;5033587;28;20032;-71
2022/11/01 11:42:34;;;;;;;23.05;10.75;;;;;;;19.18;nan;101022.84;5027725;28;20029;-71
2022/11/01 11:45:14;;;;;;;17.33;9.88;;;;;;;19.31;nan;101031.13;5030429;28;20033;-70
2022/11/01 11:47:39;;;;;;;17.05;10.00;;;;;;;;;;5029284;28;20032;-70
2022/11/01 11:50:25;;;;;;;19.03;10.33;;;;;;;;;;5030075;28;20487;-69
2022/11/01 11:52:57;;;;;;;21.70;9.85;;;;;;;19.56;nan;101021.47;5029999;28;20293;-70
2022/11/01 11:55:42;;;;;;;21.52;9.57;;;;;;;19.62;nan;101025.75;5027298;28;20030;-70
2022/11/01 11:58:19;;;;;;;18.52;9.68;;;;;;;19.66;nan;101016.13;5041398;28;20034;-69
2022/11/01 12:00:48;;;;;;;16.45;10.48;;;;;;;19.76;nan;101004.66;5032077;28;20025;-71
2022/11/01 12:03:16;;;;;;;19.25;9.65;;;;;;;19.84;nan;101030.00;5031202;28;20049;-70
2022/11/01 12:06:14;;;;;;;18.40;9.88;;;;;;;19.92;nan;101061.53;5032202;28;20023;-70
2022/11/01 12:08:48;;;;;;;19.33;9.93;;;;;;;20.02;nan;101005.38;5031903;28;20471;-71
2022/11/01 12:11:15;;;;;;;21.42;9.48;;;;;;;20.05;nan;101060.97;5032639;28;20071;-71
2022/11/01 12:14:02;;;;;;;16.58;9.13;;;;;;;20.10;nan;100999.44;5031199;28;20028;-71
2022/11/01 12:16:29;;;;;;;19.15;9.38;;;;;;;20.22;nan;101006.34;5027490;28;20483;-71
2022/11/01 12:18:57;;;;;;;20.92;10.15;;;;;;;20.31;nan;101018.09;5031314;28;20021;-71
2022/11/01 12:21:35;;;;;;;15.38;10.02;;;;;;;20.28;nan;100951.75;5025346;28;20112;-70
2022/11/01 12:24:12;;;;;;;18.17;9.23;;;;;;;20.44;nan;100995.28;5026055;28;20025;-71
2022/11/01 12:26:38;;;;;;;14.50;8.90;;;;;;;;;;5014225;28;20387;-71
2022/11/01 12:29:32;;;;;;;16.17;9.85;;;;;;;20.52;nan;100965.25;5018519;28;20030;-71
2022/11/01 12:32:05;;;;;;;15.00;8.98;;;;;;;20.54;nan;101038.84;5016584;28;20040;-71
2022/11/01 12:34:34;;;;;;;14.43;8.88;;;;;;;20.60;nan;100981.56;5017620;28;20383;-71
2022/11/01 12:37:05;;;;;;;15.55;9.32;;;;;;;20.67;nan;100999.19;5019701;28;20130;-70
2022/11/01 12:39:47;;;;;;;14.98;8.85;;;;;;;20.69;nan;100967.59;5013539;28;20483;-71
2022/11/01 12:42:38;;;;;;;17.80;9.52;;;;;;;20.76;nan;100974.25;5001680;28;20129;-70
2022/11/01 12:45:18;;;;;;;15.82;9.02;;;;;;;20.80;nan;100990.53;5007877;28;20033;-71
2022/11/01 12:47:48;;;;;;;15.45;8.90;;;;;;;20.85;nan;100993.16;5009678;28;20057;-71
2022/11/01 12:50:17;;;;;;;16.08;9.15;;;;;;;20.89;nan;100983.50;5008175;28;20021;-70
2022/11/01 12:52:45;;;;;;;16.07;9.30;;;;;;;;;;5010166;28;20377;-70
2022/11/01 12:55:11;;;;;;;17.17;8.43;;;;;;;;;;5008265;28;20018;-71
2022/11/01 12:57:36;;;;;;;21.07;9.47;;;;;;;21.01;nan;100983.13;5000912;28;20045;-71
2022/11/01 13:00:04;;;;;;;15.38;7.95;;;;;;;21.00;nan;101011.00;5009362;28;20030;-71
2022/11/01 13:02:51;;;;;;;17.98;8.57;;;;;;;21.09;nan;101019.22;5008064;28;20033;-71
2022/11/01 13:05:25;;;;;;;15.07;8.68;;;;;;;21.12;nan;100984.66;5011432;28;20029;-71
2022/11/01 13:07:56;;;;;;;15.95;8.70;;;;;;;21.16;nan;100976.84;5007514;28;20490;-71
2022/11/01 13:10:24;;;;;;;13.75;8.20;;;;;;;21.21;nan;100987.50;5010074;28;20033;-71
2022/11/01 13:13:14;;;;;;;16.33;8.75;;;;;;;21.23;nan;100974.63;5009235;28;20030;-71
2022/11/01 13:16:15;;;;;;;20.10;8.93;;;;;;;21.30;nan;100982.34;5014605;28;20065;-72
2022/11/01 13:18:52;;;;;;;15.13;8.80;;;;;;;21.33;nan;100982.56;4999222;28;20495;-71
2022/11/01 13:21:44;;;;;;;19.02;9.05;;;;;;;21.36;nan;100965.97;5017017;28;20049;-71
2022/11/01 13:24:25;;;;;;;17.88;8.80;;;;;;;21.37;nan;100951.47;5006517;28;20042;-71
2022/11/01 13:27:20;;;;;;;12.75;8.13;;;;;;;21.39;nan;100961.91;5007562;28;20022;-71
2022/11/01 13:29:52;;;;;;;14.50;8.43;;;;;;;21.46;nan;100975.81;5016073;28;20045;-71
2022/11/01 13:33:11;;;;;;;14.68;9.02;;;;;;;21.50;nan;100970.66;5030703;28;20021;-70
2022/11/01 13:36:01;;;;;;;13.70;7.80;;;;;;;21.45;nan;100932.13;4986727;28;20157;-71
2022/11/01 13:38:41;;;;;;;19.08;8.50;;;;;;;21.51;nan;100973.06;4983479;28;20113;-71
2022/11/01 13:41:30;;;;;;;18.52;8.77;;;;;;;21.53;nan;100975.47;4986639;28;20037;-70
2022/11/01 13:44:09;;;;;;;15.85;7.68;;;;;;;21.55;nan;101005.44;4989822;28;20056;-69
2022/11/01 13:46:55;;;;;;;15.30;8.07;;;;;;;21.57;nan;100995.25;4964388;28;20103;-70
2022/11/01 13:49:46;;;;;;;25.65;8.70;;;;;;;21.58;nan;100992.28;4990815;28;20463;-69
2022/11/01 13:52:25;;;;;;;17.30;7.88;;;;;;;21.59;nan;100998.44;4969484;28;20041;-69
2022/11/01 13:55:16;;;;;;;16.73;8.52;;;;;;;21.61;nan;100999.75;4976164;28;20659;-69
2022/11/01 13:57:43;;;;;;;18.23;8.38;;;;;;;21.56;nan;100993.66;4986247;28;20053;-70